createdAt,value
2023-06-27T00:02:05.136Z,4.13
2023-06-27T00:04:33.664Z,3.67
2023-06-27T00:07:02.126Z,3.27
2023-06-27T00:09:30.782Z,3.77
2023-06-27T00:11:59.472Z,3.00
2023-06-27T00:14:28.050Z,3.40
2023-06-27T00:16:56.649Z,3.70
2023-06-27T00:19:26.893Z,4.13
2023-06-27T00:21:56.701Z,3.43
2023-06-27T00:24:25.839Z,4.00
2023-06-27T00:26:54.465Z,3.73
2023-06-27T00:29:23.936Z,4.67
2023-06-27T00:31:52.703Z,3.70
2023-06-27T00:34:21.216Z,4.17
2023-06-27T00:36:51.149Z,4.30
2023-06-27T00:39:20.324Z,3.57
2023-06-27T00:41:49.016Z,3.90
2023-06-27T00:44:17.495Z,4.63
2023-06-27T00:46:50.324Z,3.77
2023-06-27T00:49:20.200Z,3.80
2023-06-27T00:51:51.390Z,3.60
2023-06-27T00:54:20.697Z,3.47
2023-06-27T00:56:52.918Z,4.23
2023-06-27T00:59:21.695Z,4.43
2023-06-27T01:01:50.808Z,4.67
2023-06-27T01:04:19.531Z,4.43
2023-06-27T01:06:56.025Z,3.93
2023-06-27T01:09:30.492Z,4.73
2023-06-27T01:12:03.907Z,4.20
2023-06-27T01:14:33.094Z,3.70
2023-06-27T01:17:02.200Z,3.43
2023-06-27T01:19:33.125Z,3.97
2023-06-27T01:22:06.519Z,4.10
2023-06-27T01:24:38.075Z,5.10
2023-06-27T01:27:07.652Z,4.40
2023-06-27T01:29:36.199Z,4.40
2023-06-27T01:32:12.347Z,4.00
2023-06-27T01:34:50.435Z,4.13
2023-06-27T01:37:24.362Z,4.30
2023-06-27T01:40:00.204Z,4.33
2023-06-27T01:42:32.012Z,3.83
2023-06-27T01:45:04.032Z,4.03
2023-06-27T01:47:35.418Z,3.67
2023-06-27T01:50:04.189Z,4.00
2023-06-27T01:52:32.752Z,4.57
2023-06-27T01:55:02.643Z,3.80
2023-06-27T01:57:31.368Z,4.00
2023-06-27T01:59:59.909Z,4.00
2023-06-27T02:02:28.502Z,3.97
2023-06-27T02:04:57.898Z,3.60
2023-06-27T02:07:26.728Z,4.43
2023-06-27T02:09:55.343Z,3.20
2023-06-27T02:12:25.293Z,4.00
2023-06-27T02:14:53.869Z,3.97
2023-06-27T02:17:22.624Z,4.10
2023-06-27T02:19:51.584Z,3.70
2023-06-27T02:22:20.269Z,3.40
2023-06-27T02:24:48.919Z,3.73
2023-06-27T02:27:17.429Z,3.40
2023-06-27T02:29:47.443Z,3.80
2023-06-27T02:32:16.526Z,4.20
2023-06-27T02:34:45.363Z,4.03
2023-06-27T02:37:15.283Z,4.17
2023-06-27T02:39:44.070Z,3.70
2023-06-27T02:42:12.749Z,3.27
2023-06-27T02:44:41.295Z,4.23
2023-06-27T02:47:11.327Z,4.30
2023-06-27T02:49:39.807Z,3.70
2023-06-27T02:52:09.015Z,3.57
2023-06-27T02:54:37.739Z,4.13
2023-06-27T02:57:07.174Z,4.07
2023-06-27T02:59:37.158Z,4.37
2023-06-27T03:02:06.972Z,3.80
2023-06-27T03:04:39.061Z,3.37
2023-06-27T03:07:08.507Z,3.80
2023-06-27T03:09:38.795Z,3.67
2023-06-27T03:12:08.683Z,3.77
2023-06-27T03:14:37.327Z,3.70
2023-06-27T03:17:07.397Z,4.20
2023-06-27T03:19:44.579Z,3.57
2023-06-27T03:22:16.319Z,3.60
2023-06-27T03:24:45.083Z,4.10
2023-06-27T03:27:14.851Z,4.00
2023-06-27T03:29:44.638Z,4.17
2023-06-27T03:32:13.920Z,4.07
2023-06-27T03:34:44.883Z,4.13
2023-06-27T03:37:14.117Z,3.80
2023-06-27T03:39:43.042Z,3.70
2023-06-27T03:42:11.640Z,4.70
2023-06-27T03:44:40.597Z,4.43
2023-06-27T03:47:09.353Z,3.77
2023-06-27T03:49:39.475Z,3.87
2023-06-27T03:52:09.811Z,4.17
2023-06-27T03:54:38.720Z,3.23
2023-06-27T03:57:08.076Z,2.97
2023-06-27T03:59:36.986Z,4.37
2023-06-27T04:02:06.757Z,3.17
2023-06-27T04:04:35.612Z,3.87
2023-06-27T04:07:04.312Z,3.23
2023-06-27T04:09:34.326Z,3.67
2023-06-27T04:12:02.772Z,3.67
2023-06-27T04:14:32.210Z,2.80
2023-06-27T04:17:00.821Z,3.50
2023-06-27T04:19:30.170Z,3.60
2023-06-27T04:22:00.042Z,3.17
2023-06-27T04:24:28.685Z,2.97
2023-06-27T04:26:58.587Z,3.23
2023-06-27T04:29:27.285Z,3.40
2023-06-27T04:31:55.823Z,3.33
2023-06-27T04:34:24.449Z,2.97
2023-06-27T04:36:53.457Z,3.43
2023-06-27T04:39:22.018Z,3.17
2023-06-27T04:41:51.283Z,3.13
2023-06-27T04:44:22.445Z,2.43
2023-06-27T04:46:51.256Z,3.03
2023-06-27T04:49:20.058Z,2.60
2023-06-27T04:51:48.654Z,2.17
2023-06-27T04:54:17.300Z,2.27
2023-06-27T04:56:46.152Z,2.07
2023-06-27T04:59:14.906Z,1.97
2023-06-27T05:01:44.965Z,2.00
2023-06-27T05:04:13.665Z,2.23
2023-06-27T05:06:42.060Z,2.20
2023-06-27T05:09:11.882Z,2.20
2023-06-27T05:11:40.596Z,2.33
2023-06-27T05:14:10.256Z,2.00
2023-06-27T05:16:39.055Z,1.87
2023-06-27T05:19:09.282Z,1.97
2023-06-27T05:21:38.282Z,2.13
2023-06-27T05:24:07.400Z,1.98
2023-06-27T05:26:36.707Z,2.63
2023-06-27T05:29:05.600Z,2.07
2023-06-27T05:31:34.474Z,1.80
2023-06-27T05:34:02.984Z,2.37
2023-06-27T05:36:33.140Z,2.67
2023-06-27T05:39:01.794Z,2.30
2023-06-27T05:41:31.701Z,2.20
2023-06-27T05:44:00.359Z,2.28
2023-06-27T05:46:29.088Z,1.90
2023-06-27T05:48:57.922Z,2.20
2023-06-27T05:51:26.732Z,2.30
2023-06-27T05:53:56.731Z,1.92
2023-06-27T05:56:25.482Z,2.50
2023-06-27T05:58:54.153Z,2.67
2023-06-27T06:01:22.698Z,2.27
2023-06-27T06:03:51.601Z,1.88
2023-06-27T06:06:20.273Z,1.90
2023-06-27T06:08:48.886Z,2.08
2023-06-27T06:11:19.415Z,2.13
2023-06-27T06:13:48.336Z,1.77
2023-06-27T06:16:16.970Z,1.80
2023-06-27T06:18:45.665Z,2.30
2023-06-27T06:21:14.580Z,1.60
2023-06-27T06:23:43.138Z,2.27
2023-06-27T06:26:11.630Z,2.23
2023-06-27T06:28:41.631Z,1.80
2023-06-27T06:31:12.389Z,2.07
2023-06-27T06:33:41.437Z,2.23
2023-06-27T06:36:10.134Z,2.20
2023-06-27T06:38:38.898Z,2.30
2023-06-27T06:41:07.701Z,1.60
2023-06-27T06:43:36.322Z,2.13
2023-06-27T06:46:06.604Z,4.90
2023-06-27T06:48:35.202Z,2.00
2023-06-27T06:51:03.845Z,2.37
2023-06-27T06:53:32.465Z,2.33
2023-06-27T06:56:01.236Z,2.40
2023-06-27T06:58:29.935Z,2.08
2023-06-27T07:00:58.847Z,1.80
2023-06-27T07:03:29.172Z,1.90
2023-06-27T07:05:57.913Z,1.73
2023-06-27T07:08:26.511Z,1.60
2023-06-27T07:10:55.473Z,2.10
2023-06-27T07:13:24.027Z,1.57
2023-06-27T07:15:52.659Z,1.90
2023-06-27T07:18:21.687Z,1.98
2023-06-27T07:20:51.762Z,1.70
2023-06-27T07:23:20.478Z,1.42
2023-06-27T07:25:49.308Z,1.70
2023-06-27T07:28:18.091Z,1.77
2023-06-27T07:30:47.289Z,1.90
2023-06-27T07:33:18.899Z,1.77
2023-06-27T07:35:48.240Z,1.05
2023-06-27T07:38:18.477Z,1.50
2023-06-27T07:40:47.413Z,1.30
2023-06-27T07:43:16.211Z,1.50
2023-06-27T07:45:45.649Z,1.65
2023-06-27T07:48:14.382Z,1.55
2023-06-27T07:50:43.176Z,1.45
2023-06-27T07:53:12.019Z,1.63
2023-06-27T07:55:42.235Z,1.60
2023-06-27T07:58:10.936Z,1.80
2023-06-27T08:00:40.331Z,1.70
2023-06-27T08:03:09.479Z,1.45
2023-06-27T08:05:40.627Z,1.48
2023-06-27T08:08:10.773Z,1.35
2023-06-27T08:10:39.685Z,1.98
2023-06-27T08:13:10.928Z,1.70
2023-06-27T08:15:40.100Z,1.50
2023-06-27T08:18:08.906Z,1.40
2023-06-27T08:20:37.588Z,2.30
2023-06-27T08:23:06.611Z,2.00
2023-06-27T08:25:35.045Z,1.60
2023-06-27T08:28:03.694Z,2.00
2023-06-27T08:30:33.909Z,1.80
2023-06-27T08:33:02.592Z,1.60
2023-06-27T08:35:31.178Z,1.53
2023-06-27T08:37:59.890Z,1.57
2023-06-27T08:40:29.515Z,2.00
2023-06-27T08:42:58.317Z,1.47
2023-06-27T08:45:27.015Z,1.57
2023-06-27T08:47:57.554Z,1.17
2023-06-27T08:50:27.267Z,1.80
2023-06-27T08:52:58.790Z,1.80
2023-06-27T08:55:33.412Z,1.60
2023-06-27T08:58:05.782Z,1.53
2023-06-27T09:00:35.148Z,1.50
2023-06-27T09:03:05.989Z,1.50
2023-06-27T09:05:35.624Z,1.00
2023-06-27T09:08:04.333Z,1.40
2023-06-27T09:10:33.417Z,1.52
2023-06-27T09:13:02.448Z,1.70
2023-06-27T09:15:31.443Z,1.13
2023-06-27T09:18:00.382Z,1.40
2023-06-27T09:20:30.723Z,1.40
2023-06-27T09:22:59.552Z,1.30
2023-06-27T09:25:28.129Z,1.75
2023-06-27T09:27:58.759Z,1.23
2023-06-27T09:30:34.083Z,1.38
2023-06-27T09:33:06.295Z,1.00
2023-06-27T09:36:00.959Z,1.23
2023-06-27T09:41:06.349Z,1.27
2023-06-27T09:43:36.787Z,1.58
2023-06-27T09:46:07.186Z,1.02
2023-06-27T09:48:37.930Z,1.10
2023-06-27T09:51:09.779Z,1.20
2023-06-27T09:53:38.479Z,1.27
2023-06-27T09:56:08.018Z,1.10
2023-06-27T09:58:36.733Z,1.20
2023-06-27T10:01:06.600Z,1.55
2023-06-27T10:03:36.033Z,0.98
2023-06-27T10:06:11.442Z,1.42
2023-06-27T10:08:42.627Z,1.25
2023-06-27T10:11:13.158Z,2.42
2023-06-27T10:13:43.001Z,1.90
2023-06-27T10:16:13.038Z,2.60
2023-06-27T10:18:41.807Z,1.85
2023-06-27T10:21:10.687Z,1.50
2023-06-27T10:23:42.729Z,1.10
2023-06-27T10:26:11.544Z,1.60
2023-06-27T10:28:40.206Z,1.20
2023-06-27T10:31:09.279Z,1.10
2023-06-27T10:33:43.626Z,2.97
2023-06-27T10:36:12.721Z,1.20
2023-06-27T10:38:45.527Z,1.10
2023-06-27T10:41:14.756Z,1.30
2023-06-27T10:43:51.076Z,1.40
2023-06-27T10:46:21.208Z,1.60
2023-06-27T10:48:51.206Z,1.17
2023-06-27T10:51:21.516Z,1.10
2023-06-27T10:54:17.055Z,1.80
2023-06-27T10:56:46.907Z,1.37
2023-06-27T10:59:18.179Z,1.10
2023-06-27T11:01:53.253Z,1.50
2023-06-27T11:04:26.019Z,1.20
2023-06-27T11:07:01.072Z,1.03
2023-06-27T11:09:32.385Z,1.80
2023-06-27T11:12:12.744Z,1.40
2023-06-27T11:14:43.208Z,1.53
2023-06-27T11:17:13.039Z,1.50
2023-06-27T11:19:43.936Z,1.57
2023-06-27T11:22:13.858Z,1.50
2023-06-27T11:24:44.052Z,1.53
2023-06-27T11:27:12.782Z,1.43
2023-06-27T11:29:44.159Z,1.27
2023-06-27T11:32:13.134Z,1.60
2023-06-27T11:34:43.679Z,1.37
2023-06-27T11:37:13.736Z,1.57
2023-06-27T11:39:54.389Z,2.00
2023-06-27T11:42:34.551Z,1.43
2023-06-27T11:45:03.578Z,2.20
2023-06-27T11:47:32.494Z,1.80
2023-06-27T11:50:09.685Z,3.17
2023-06-27T11:52:38.884Z,2.73
2023-06-27T11:55:09.890Z,1.70
2023-06-27T11:57:45.982Z,2.00
2023-06-27T12:00:21.157Z,1.60
2023-06-27T12:02:51.765Z,1.63
2023-06-27T12:05:22.139Z,1.77
2023-06-27T12:08:03.045Z,1.33
2023-06-27T12:10:33.777Z,1.77
2023-06-27T12:13:04.799Z,1.70
2023-06-27T12:15:46.312Z,1.30
2023-06-27T12:18:24.481Z,2.37
2023-06-27T12:20:54.088Z,1.10
2023-06-27T12:23:23.142Z,1.43
2023-06-27T12:25:53.094Z,1.00
2023-06-27T12:28:24.004Z,1.23
2023-06-27T12:30:52.960Z,1.40
2023-06-27T12:33:21.736Z,1.40
2023-06-27T12:35:50.447Z,1.30
2023-06-27T12:38:19.087Z,1.33
2023-06-27T12:40:47.873Z,1.10
2023-06-27T12:43:17.936Z,0.93
2023-06-27T12:46:00.664Z,1.60
2023-06-27T12:48:29.410Z,1.70
2023-06-27T12:50:58.347Z,2.33
2023-06-27T12:53:28.322Z,1.50
2023-06-27T12:55:57.353Z,1.60
2023-06-27T12:58:28.042Z,1.33
2023-06-27T13:00:58.089Z,1.70
2023-06-27T13:03:26.809Z,1.40
2023-06-27T13:05:55.432Z,1.47
2023-06-27T13:08:24.053Z,1.40
2023-06-27T13:10:54.230Z,1.50
2023-06-27T13:13:22.832Z,1.83
2023-06-27T13:16:08.628Z,1.40
2023-06-27T13:18:42.325Z,1.40
2023-06-27T13:21:10.947Z,1.37
2023-06-27T13:23:39.745Z,1.40
2023-06-27T13:26:08.500Z,1.10
2023-06-27T13:28:38.008Z,1.63
2023-06-27T13:31:08.136Z,1.60
2023-06-27T13:33:36.807Z,1.30
2023-06-27T13:36:06.519Z,1.13
2023-06-27T13:38:35.103Z,1.33
2023-06-27T13:41:04.327Z,1.43
2023-06-27T13:43:32.910Z,1.83
2023-06-27T13:46:01.471Z,1.20
2023-06-27T13:48:32.092Z,1.40
2023-06-27T13:51:00.575Z,1.77
2023-06-27T13:53:29.385Z,2.17
2023-06-27T13:55:58.252Z,1.60
2023-06-27T13:58:27.233Z,1.40
2023-06-27T14:00:57.285Z,1.60
2023-06-27T14:03:26.232Z,1.27
2023-06-27T14:05:56.497Z,1.30
2023-06-27T14:08:25.087Z,1.63
2023-06-27T14:10:54.103Z,1.60
2023-06-27T14:13:23.267Z,1.43
2023-06-27T14:15:51.929Z,1.37
2023-06-27T14:18:20.671Z,1.87
2023-06-27T14:20:49.370Z,1.37
2023-06-27T14:23:21.366Z,1.50
2023-06-27T14:25:50.355Z,1.37
2023-06-27T14:28:19.265Z,1.60
2023-06-27T14:30:47.906Z,1.60
2023-06-27T14:33:22.344Z,1.83
2023-06-27T14:35:52.620Z,1.50
2023-06-27T14:38:23.339Z,1.00
2023-06-27T14:40:52.321Z,1.37
2023-06-27T14:43:21.407Z,1.20
2023-06-27T14:45:49.893Z,1.63
2023-06-27T14:48:18.580Z,1.27
2023-06-27T14:50:47.156Z,1.67
2023-06-27T14:53:16.053Z,1.60
2023-06-27T14:55:45.899Z,1.40
2023-06-27T14:58:14.581Z,1.30
2023-06-27T15:00:43.333Z,1.43
2023-06-27T15:03:12.349Z,1.60
2023-06-27T15:05:41.259Z,1.50
2023-06-27T15:08:10.240Z,1.50
2023-06-27T15:10:45.707Z,1.67
2023-06-27T15:13:16.413Z,1.40
2023-06-27T15:15:45.134Z,1.33
2023-06-27T15:18:13.948Z,1.80
2023-06-27T15:20:42.882Z,1.87
2023-06-27T15:23:15.125Z,1.50
2023-06-27T15:25:48.288Z,1.10
2023-06-27T15:28:18.336Z,1.57
2023-06-27T15:30:46.962Z,1.93
2023-06-27T15:33:15.853Z,1.40
2023-06-27T15:35:44.562Z,1.80
2023-06-27T15:38:13.411Z,1.67
2023-06-27T15:40:42.429Z,1.43
2023-06-27T15:43:11.078Z,1.37
2023-06-27T15:45:41.437Z,1.63
2023-06-27T15:48:10.075Z,1.77
2023-06-27T15:50:38.922Z,2.07
2023-06-27T15:53:07.769Z,1.70
2023-06-27T15:55:36.917Z,1.50
2023-06-27T15:58:05.642Z,1.53
2023-06-27T16:00:34.318Z,1.70
2023-06-27T16:03:04.416Z,1.33
2023-06-27T16:05:33.060Z,1.33
2023-06-27T16:08:01.796Z,1.47
2023-06-27T16:10:30.875Z,1.37
2023-06-27T16:12:59.807Z,2.17
2023-06-27T16:15:28.321Z,1.57
2023-06-27T16:17:57.009Z,1.33
2023-06-27T16:20:27.001Z,1.67
2023-06-27T16:22:55.720Z,1.37
2023-06-27T16:25:24.183Z,1.70
2023-06-27T16:27:52.764Z,1.47
2023-06-27T16:30:22.144Z,1.23
2023-06-27T16:32:51.470Z,1.40
2023-06-27T16:35:22.549Z,1.40
2023-06-27T16:37:52.593Z,1.63
2023-06-27T16:40:21.196Z,1.40
2023-06-27T16:42:49.880Z,1.43
2023-06-27T16:45:22.162Z,1.47
2023-06-27T16:47:51.538Z,1.47
2023-06-27T16:50:21.717Z,1.33
2023-06-27T16:52:50.605Z,1.40
2023-06-27T16:55:20.489Z,1.63
2023-06-27T16:57:48.978Z,1.70
2023-06-27T17:00:17.980Z,1.90
2023-06-27T17:02:49.359Z,1.33
2023-06-27T17:05:18.407Z,1.50
2023-06-27T17:07:47.337Z,1.70
2023-06-27T17:10:16.242Z,1.60
2023-06-27T17:12:46.809Z,1.73
2023-06-27T17:15:15.656Z,1.80
2023-06-27T17:17:44.372Z,1.50
2023-06-27T17:20:14.313Z,1.90
2023-06-27T17:22:42.790Z,1.93
2023-06-27T17:25:11.779Z,2.20
2023-06-27T17:27:40.513Z,1.83
2023-06-27T17:30:11.810Z,1.60
2023-06-27T17:32:40.456Z,1.87
2023-06-27T17:35:10.093Z,2.03
2023-06-27T17:37:38.793Z,1.30
2023-06-27T17:40:08.764Z,1.83
2023-06-27T17:42:37.397Z,2.00
2023-06-27T17:45:06.398Z,1.97
2023-06-27T17:47:36.524Z,1.57
2023-06-27T17:50:06.802Z,1.70
2023-06-27T17:52:35.505Z,2.00
2023-06-27T17:55:04.254Z,1.37
2023-06-27T17:57:32.895Z,1.70
2023-06-27T18:00:01.959Z,1.40
2023-06-27T18:02:31.385Z,1.83
2023-06-27T18:05:02.546Z,2.03
2023-06-27T18:07:37.971Z,1.40
2023-06-27T18:10:08.952Z,1.53
2023-06-27T18:12:37.682Z,1.90
2023-06-27T18:15:06.941Z,1.97
2023-06-27T18:17:35.431Z,1.80
2023-06-27T18:20:06.374Z,2.10
2023-06-27T18:22:35.906Z,1.63
2023-06-27T18:25:04.645Z,1.60
2023-06-27T18:27:33.538Z,1.80
2023-06-27T18:30:02.217Z,2.10
2023-06-27T18:32:31.022Z,2.03
2023-06-27T18:34:59.610Z,2.17
2023-06-27T18:37:29.828Z,2.23
2023-06-27T18:39:58.375Z,2.13
2023-06-27T18:42:27.178Z,2.20
2023-06-27T18:44:55.962Z,1.73
2023-06-27T18:47:24.593Z,2.40
2023-06-27T18:49:53.265Z,1.90
2023-06-27T18:52:21.825Z,1.80
2023-06-27T18:54:52.442Z,2.10
2023-06-27T18:57:21.250Z,1.70
2023-06-27T18:59:49.824Z,2.17
2023-06-27T19:02:18.502Z,2.00
2023-06-27T19:04:47.253Z,2.40
2023-06-27T19:07:15.998Z,2.20
2023-06-27T19:09:44.561Z,2.60
2023-06-27T19:12:14.504Z,2.00
2023-06-27T19:14:43.081Z,2.13
2023-06-27T19:17:11.567Z,2.17
2023-06-27T19:19:40.736Z,1.97
2023-06-27T19:22:09.936Z,2.00
2023-06-27T19:24:38.739Z,2.13
2023-06-27T19:27:08.898Z,2.40
2023-06-27T19:29:39.114Z,2.17
2023-06-27T19:32:08.773Z,1.93
2023-06-27T19:34:37.550Z,2.17
2023-06-27T19:37:06.361Z,2.30
2023-06-27T19:39:35.047Z,2.43
2023-06-27T19:42:03.739Z,2.17
2023-06-27T19:44:32.585Z,2.00
2023-06-27T19:47:02.732Z,1.93
2023-06-27T19:49:31.436Z,2.53
2023-06-27T19:52:00.131Z,2.20
2023-06-27T19:54:28.881Z,1.90
2023-06-27T19:56:59.953Z,2.43
2023-06-27T19:59:28.555Z,2.60
2023-06-27T20:01:57.137Z,2.10
2023-06-27T20:04:27.023Z,2.47
2023-06-27T20:06:55.915Z,1.97
2023-06-27T20:09:24.990Z,2.40
2023-06-27T20:11:53.993Z,2.47
2023-06-27T20:14:23.127Z,1.83
2023-06-27T20:16:51.835Z,2.23
2023-06-27T20:19:20.472Z,2.33
2023-06-27T20:21:50.605Z,2.20
2023-06-27T20:24:19.755Z,2.63
2023-06-27T20:26:48.364Z,1.90
2023-06-27T20:29:16.978Z,1.70
2023-06-27T20:31:45.613Z,2.27
2023-06-27T20:34:15.088Z,1.80
2023-06-27T20:36:43.493Z,2.20
2023-06-27T20:39:13.336Z,2.40
2023-06-27T20:41:41.920Z,1.90
2023-06-27T20:44:10.504Z,2.20
2023-06-27T20:46:38.887Z,2.00
2023-06-27T20:49:07.303Z,2.00
2023-06-27T20:51:35.906Z,2.07
2023-06-27T20:54:04.880Z,2.20
2023-06-27T20:56:35.001Z,2.23
2023-06-27T20:59:03.753Z,1.90
2023-06-27T21:01:32.896Z,2.57
2023-06-27T21:04:01.505Z,2.30
2023-06-27T21:06:30.432Z,2.53
2023-06-27T21:08:59.028Z,2.10
2023-06-27T21:11:27.797Z,2.33
2023-06-27T21:13:57.713Z,2.57
2023-06-27T21:16:26.633Z,2.10
2023-06-27T21:18:55.964Z,1.67
2023-06-27T21:21:24.478Z,2.37
2023-06-27T21:23:53.478Z,2.20
2023-06-27T21:26:22.441Z,2.37
2023-06-27T21:28:51.260Z,2.40
2023-06-27T21:31:21.185Z,2.40
2023-06-27T21:33:51.158Z,2.33
2023-06-27T21:36:19.668Z,2.63
2023-06-27T21:38:48.432Z,2.50
2023-06-27T21:41:17.080Z,2.83
2023-06-27T21:43:45.606Z,2.30
2023-06-27T21:46:14.239Z,2.37
2023-06-27T21:48:44.165Z,2.20
2023-06-27T21:51:12.814Z,2.13
2023-06-27T21:53:41.405Z,2.40
2023-06-27T21:56:10.183Z,2.10
2023-06-27T21:58:38.887Z,3.00
2023-06-27T22:01:07.441Z,2.13
2023-06-27T22:03:40.009Z,2.83
2023-06-27T22:06:10.380Z,2.20
2023-06-27T22:08:39.068Z,2.30
2023-06-27T22:11:07.651Z,2.00
2023-06-27T22:13:36.498Z,2.47
2023-06-27T22:16:05.554Z,2.13
2023-06-27T22:18:34.219Z,2.30
2023-06-27T22:21:02.726Z,2.13
2023-06-27T22:23:33.870Z,2.70
2023-06-27T22:26:02.379Z,2.87
2023-06-27T22:28:30.917Z,2.60
2023-06-27T22:30:59.675Z,2.20
2023-06-27T22:33:28.371Z,2.50
2023-06-27T22:35:57.044Z,2.57
2023-06-27T22:38:25.749Z,2.40
2023-06-27T22:40:55.781Z,2.17
2023-06-27T22:43:24.297Z,2.00
2023-06-27T22:45:53.125Z,2.23
2023-06-27T22:48:22.057Z,2.53
2023-06-27T22:50:50.658Z,2.40
2023-06-27T22:53:19.297Z,2.27
2023-06-27T22:55:48.086Z,2.50
2023-06-27T22:58:18.007Z,2.10
2023-06-27T23:00:46.539Z,2.10
2023-06-27T23:03:15.194Z,2.47
2023-06-27T23:05:44.094Z,2.10
2023-06-27T23:08:12.537Z,2.30
2023-06-27T23:10:41.496Z,2.40
2023-06-27T23:13:10.402Z,2.40
2023-06-27T23:15:40.363Z,2.47
2023-06-27T23:18:10.372Z,2.23
2023-06-27T23:20:42.572Z,2.80
2023-06-27T23:23:12.693Z,2.07
2023-06-27T23:25:44.701Z,2.40
2023-06-27T23:28:15.137Z,2.00
2023-06-27T23:30:54.858Z,2.70
2023-06-27T23:33:24.236Z,2.43
2023-06-27T23:35:53.382Z,2.30
2023-06-27T23:38:22.162Z,2.10
2023-06-27T23:40:51.147Z,3.00
2023-06-27T23:43:19.950Z,2.77
2023-06-27T23:45:49.786Z,2.60
2023-06-27T23:48:18.525Z,1.97
2023-06-27T23:50:47.020Z,2.40
2023-06-27T23:53:15.816Z,2.00
2023-06-27T23:55:44.807Z,2.33
2023-06-27T23:58:13.323Z,2.13
